createdAt,value
2022-10-12T00:00:25.947Z,9.30
2022-10-12T00:02:52.535Z,7.40
2022-10-12T00:05:19.185Z,7.70
2022-10-12T00:07:45.922Z,7.83
2022-10-12T00:10:12.686Z,7.50
2022-10-12T00:12:39.286Z,7.67
2022-10-12T00:15:06.195Z,7.53
2022-10-12T00:17:32.957Z,6.83
2022-10-12T00:19:59.550Z,7.00
2022-10-12T00:22:26.137Z,7.60
2022-10-12T00:24:53.014Z,7.23
2022-10-12T00:27:19.652Z,7.70
2022-10-12T00:29:46.284Z,7.73
2022-10-12T00:32:12.854Z,7.43
2022-10-12T00:34:39.449Z,7.60
2022-10-12T00:37:06.052Z,8.10
2022-10-12T00:39:32.628Z,7.20
2022-10-12T00:41:59.386Z,7.07
2022-10-12T00:44:39.796Z,6.57
2022-10-12T00:47:10.904Z,7.73
2022-10-12T00:49:37.648Z,7.77
2022-10-12T00:52:09.206Z,7.77
2022-10-12T00:54:38.169Z,6.97
2022-10-12T00:57:05.845Z,7.00
2022-10-12T00:59:34.322Z,7.03
2022-10-12T01:02:00.946Z,7.27
2022-10-12T01:04:27.596Z,7.10
2022-10-12T01:06:54.171Z,6.83
2022-10-12T01:09:21.142Z,7.70
2022-10-12T01:11:48.049Z,7.33
2022-10-12T01:14:15.210Z,7.80
2022-10-12T01:16:46.811Z,7.23
2022-10-12T01:19:36.857Z,8.00
2022-10-12T01:22:05.793Z,7.40
2022-10-12T01:24:38.370Z,7.70
2022-10-12T01:27:15.013Z,7.43
2022-10-12T01:30:00.375Z,7.77
2022-10-12T01:32:26.898Z,7.97
2022-10-12T01:34:53.525Z,8.30
2022-10-12T01:37:42.502Z,7.27
2022-10-12T01:40:12.091Z,6.87
2022-10-12T01:42:40.289Z,7.13
2022-10-12T01:45:08.808Z,7.47
2022-10-12T01:47:36.431Z,7.07
2022-10-12T01:50:04.380Z,7.33
2022-10-12T01:52:32.163Z,6.77
2022-10-12T01:55:17.791Z,7.93
2022-10-12T01:57:50.313Z,7.30
2022-10-12T02:00:17.383Z,6.87
2022-10-12T02:03:22.676Z,7.70
2022-10-12T02:05:58.147Z,6.97
2022-10-12T02:08:26.453Z,7.07
2022-10-12T02:11:02.366Z,6.67
2022-10-12T02:13:30.735Z,7.10
2022-10-12T02:15:58.472Z,7.30
2022-10-12T02:18:25.248Z,8.00
2022-10-12T02:20:53.648Z,6.70
2022-10-12T02:23:23.379Z,7.30
2022-10-12T02:25:51.687Z,7.93
2022-10-12T02:28:20.792Z,7.67
2022-10-12T02:31:01.568Z,7.77
2022-10-12T02:33:37.215Z,7.97
2022-10-12T02:36:10.991Z,7.90
2022-10-12T02:38:49.009Z,7.27
2022-10-12T02:41:19.932Z,7.73
2022-10-12T02:43:52.433Z,7.97
2022-10-12T02:46:19.714Z,8.27
2022-10-12T02:48:47.566Z,8.70
2022-10-12T02:51:14.536Z,8.30
2022-10-12T02:53:41.247Z,8.63
2022-10-12T02:56:11.746Z,8.17
2022-10-12T02:58:38.468Z,8.33
2022-10-12T03:01:05.192Z,8.50
2022-10-12T03:03:31.836Z,8.10
2022-10-12T03:05:58.620Z,8.60
2022-10-12T03:08:25.212Z,8.50
2022-10-12T03:10:51.772Z,8.00
2022-10-12T03:13:18.429Z,8.20
2022-10-12T03:15:45.067Z,9.20
2022-10-12T03:18:11.665Z,8.97
2022-10-12T03:20:38.240Z,9.00
2022-10-12T03:23:04.813Z,9.63
2022-10-12T03:25:31.802Z,10.17
2022-10-12T03:27:58.483Z,10.00
2022-10-12T03:30:25.059Z,9.93
2022-10-12T03:32:51.691Z,9.83
2022-10-12T03:35:18.280Z,9.53
2022-10-12T03:37:44.931Z,10.37
2022-10-12T03:40:11.768Z,10.17
2022-10-12T03:42:38.398Z,9.73
2022-10-12T03:45:05.154Z,9.70
2022-10-12T03:47:31.758Z,10.13
2022-10-12T03:49:58.346Z,10.17
2022-10-12T03:52:24.941Z,11.13
2022-10-12T03:54:51.527Z,9.37
2022-10-12T03:57:18.148Z,10.27
2022-10-12T03:59:44.697Z,10.27
2022-10-12T04:02:16.518Z,10.63
2022-10-12T04:04:43.610Z,10.40
2022-10-12T04:07:10.384Z,10.80
2022-10-12T04:09:36.975Z,11.70
2022-10-12T04:12:03.679Z,10.67
2022-10-12T04:14:30.496Z,11.00
2022-10-12T04:16:57.052Z,10.53
2022-10-12T04:19:23.596Z,10.40
2022-10-12T04:21:50.253Z,10.43
2022-10-12T04:24:16.824Z,11.00
2022-10-12T04:26:43.416Z,9.87
2022-10-12T04:29:11.665Z,10.47
2022-10-12T04:31:38.209Z,11.33
2022-10-12T04:34:04.844Z,10.50
2022-10-12T04:36:31.466Z,10.30
2022-10-12T04:39:00.982Z,10.73
2022-10-12T04:41:27.980Z,11.17
2022-10-12T04:43:54.703Z,10.13
2022-10-12T04:46:21.423Z,10.37
2022-10-12T04:48:48.044Z,9.67
2022-10-12T04:51:14.661Z,10.73
2022-10-12T04:53:41.326Z,11.33
2022-10-12T04:56:08.027Z,11.50
2022-10-12T04:58:34.673Z,10.67
2022-10-12T05:01:01.332Z,10.97
2022-10-12T05:03:28.007Z,11.40
2022-10-12T05:05:54.563Z,11.67
2022-10-12T05:08:21.274Z,11.80
2022-10-12T05:10:47.898Z,11.50
2022-10-12T05:13:14.699Z,10.50
2022-10-12T05:15:42.635Z,10.67
2022-10-12T05:18:09.235Z,10.43
2022-10-12T05:20:37.418Z,9.17
2022-10-12T05:23:04.378Z,10.27
2022-10-12T05:25:31.156Z,9.40
2022-10-12T05:27:57.812Z,8.50
2022-10-12T05:30:24.448Z,8.53
2022-10-12T05:32:51.651Z,9.07
2022-10-12T05:35:18.285Z,8.27
2022-10-12T05:37:44.855Z,7.70
2022-10-12T05:40:11.709Z,8.53
2022-10-12T05:42:38.636Z,8.60
2022-10-12T05:45:05.746Z,7.90
2022-10-12T05:47:32.329Z,7.77
2022-10-12T05:49:58.941Z,7.43
2022-10-12T05:52:25.517Z,7.00
2022-10-12T05:54:52.096Z,7.20
2022-10-12T05:57:19.587Z,6.90
2022-10-12T05:59:46.213Z,6.83
2022-10-12T06:02:17.018Z,6.20
2022-10-12T06:04:43.715Z,7.50
2022-10-12T06:07:10.320Z,6.33
2022-10-12T06:09:40.112Z,7.20
2022-10-12T06:12:07.522Z,6.97
2022-10-12T06:14:34.135Z,7.50
2022-10-12T06:17:00.728Z,6.30
2022-10-12T06:19:27.313Z,6.73
2022-10-12T06:21:53.900Z,5.20
2022-10-12T06:24:20.539Z,5.30
2022-10-12T06:26:47.192Z,5.50
2022-10-12T06:29:13.795Z,5.30
2022-10-12T06:31:40.450Z,5.73
2022-10-12T06:34:07.039Z,5.17
2022-10-12T06:36:33.681Z,5.00
2022-10-12T06:39:00.351Z,5.10
2022-10-12T06:41:26.920Z,5.30
2022-10-12T06:43:53.478Z,5.97
2022-10-12T06:46:20.105Z,5.10
2022-10-12T06:48:46.697Z,5.03
2022-10-12T06:51:13.321Z,6.07
2022-10-12T06:53:39.944Z,5.30
2022-10-12T06:56:10.009Z,5.33
2022-10-12T06:58:36.734Z,6.30
2022-10-12T07:01:07.456Z,6.00
2022-10-12T07:03:34.447Z,5.20
2022-10-12T07:06:07.540Z,4.63
2022-10-12T07:08:34.659Z,4.33
2022-10-12T07:11:01.957Z,4.70
2022-10-12T07:13:28.856Z,4.40
2022-10-12T07:15:55.529Z,4.50
2022-10-12T07:18:22.138Z,4.20
2022-10-12T07:20:48.757Z,4.53
2022-10-12T07:23:15.418Z,4.13
2022-10-12T07:25:47.386Z,3.83
2022-10-12T07:28:14.078Z,3.13
2022-10-12T07:30:40.716Z,3.17
2022-10-12T07:33:07.340Z,3.27
2022-10-12T07:35:33.901Z,3.50
2022-10-12T07:38:00.557Z,3.60
2022-10-12T07:40:27.147Z,3.43
2022-10-12T07:43:14.826Z,2.90
2022-10-12T07:45:41.307Z,2.87
2022-10-12T07:48:08.064Z,2.63
2022-10-12T07:50:34.639Z,3.60
2022-10-12T07:53:01.180Z,3.77
2022-10-12T07:55:27.783Z,3.00
2022-10-12T07:57:54.379Z,3.00
2022-10-12T08:00:22.278Z,2.80
2022-10-12T08:02:48.863Z,3.40
2022-10-12T08:05:15.469Z,3.20
2022-10-12T08:07:42.234Z,3.63
2022-10-12T08:10:08.897Z,2.97
2022-10-12T08:12:35.467Z,2.93
2022-10-12T08:15:02.097Z,2.43
2022-10-12T08:17:28.656Z,2.77
2022-10-12T08:19:55.350Z,3.03
2022-10-12T08:22:21.933Z,3.63
2022-10-12T08:24:48.631Z,3.27
2022-10-12T08:27:15.344Z,3.40
2022-10-12T08:29:41.965Z,2.90
2022-10-12T08:32:08.608Z,2.60
2022-10-12T08:34:35.289Z,3.20
2022-10-12T08:37:01.903Z,2.43
2022-10-12T08:39:28.596Z,2.50
2022-10-12T08:42:14.021Z,2.87
2022-10-12T08:44:51.222Z,3.20
2022-10-12T08:47:20.552Z,2.53
2022-10-12T08:49:52.872Z,2.30
2022-10-12T08:52:40.843Z,2.77
2022-10-12T08:55:20.184Z,2.73
2022-10-12T08:57:50.043Z,2.97
2022-10-12T09:00:18.896Z,2.77
2022-10-12T09:02:56.199Z,2.43
2022-10-12T09:05:30.942Z,2.77
2022-10-12T09:08:22.915Z,2.60
2022-10-12T09:10:58.569Z,3.07
2022-10-12T09:13:39.090Z,2.50
2022-10-12T09:16:14.784Z,3.00
2022-10-12T09:18:47.683Z,2.50
2022-10-12T09:21:19.872Z,2.77
2022-10-12T09:23:50.053Z,2.30
2022-10-12T09:26:21.722Z,2.37
2022-10-12T09:28:51.030Z,2.40
2022-10-12T09:31:25.795Z,2.30
2022-10-12T09:33:54.799Z,2.00
2022-10-12T09:36:22.336Z,1.80
2022-10-12T09:38:49.668Z,1.70
2022-10-12T09:41:23.853Z,1.90
2022-10-12T09:43:52.524Z,1.93
2022-10-12T09:46:22.223Z,2.20
2022-10-12T09:49:01.180Z,1.90
2022-10-12T09:51:29.312Z,2.73
2022-10-12T09:54:02.583Z,2.70
2022-10-12T09:56:30.870Z,2.60
2022-10-12T09:59:00.609Z,2.53
2022-10-12T10:01:27.284Z,2.70
2022-10-12T10:04:06.764Z,2.97
2022-10-12T10:06:33.793Z,3.10
2022-10-12T10:09:00.827Z,2.73
2022-10-12T10:11:28.562Z,2.97
2022-10-12T10:13:55.233Z,2.50
2022-10-12T10:16:26.130Z,2.47
2022-10-12T10:18:55.746Z,2.40
2022-10-12T10:21:36.391Z,2.57
2022-10-12T10:24:07.185Z,2.63
2022-10-12T10:26:54.159Z,2.40
2022-10-12T10:29:39.218Z,1.70
2022-10-12T10:32:31.699Z,2.30
2022-10-12T10:35:02.597Z,2.20
2022-10-12T10:37:29.758Z,2.37
2022-10-12T10:39:57.329Z,2.30
2022-10-12T10:42:29.326Z,2.17
2022-10-12T10:45:00.928Z,2.60
2022-10-12T10:47:28.313Z,2.20
2022-10-12T10:49:57.284Z,2.40
2022-10-12T10:52:25.646Z,2.57
2022-10-12T10:55:10.797Z,3.33
2022-10-12T10:57:40.311Z,3.43
2022-10-12T11:00:37.279Z,3.93
2022-10-12T11:03:01.192Z,3.60
2022-10-12T11:05:27.761Z,3.80
2022-10-12T11:07:56.038Z,3.60
2022-10-12T11:10:45.927Z,3.43
2022-10-12T11:13:15.804Z,4.57
2022-10-12T11:15:45.865Z,4.63
2022-10-12T11:18:20.510Z,3.90
2022-10-12T11:21:07.389Z,3.73
2022-10-12T11:23:41.616Z,4.07
2022-10-12T11:26:08.408Z,4.57
2022-10-12T11:28:36.158Z,4.13
2022-10-12T11:31:03.259Z,4.60
2022-10-12T11:33:37.990Z,4.80
2022-10-12T11:36:12.566Z,4.23
2022-10-12T11:38:41.940Z,4.63
2022-10-12T11:41:34.510Z,4.40
2022-10-12T11:44:07.406Z,4.33
2022-10-12T11:47:02.099Z,4.37
2022-10-12T11:49:34.540Z,4.03
2022-10-12T11:52:06.233Z,4.10
2022-10-12T11:54:38.030Z,3.90
2022-10-12T11:57:12.120Z,4.17
2022-10-12T11:59:41.858Z,4.37
2022-10-12T12:02:27.339Z,3.77
2022-10-12T12:04:54.645Z,3.67
2022-10-12T12:07:40.929Z,4.00
2022-10-12T12:10:25.647Z,4.43
2022-10-12T12:13:11.820Z,4.60
2022-10-12T12:15:47.735Z,4.10
2022-10-12T12:18:16.419Z,4.37
2022-10-12T12:20:43.157Z,4.03
2022-10-12T12:23:18.770Z,3.60
2022-10-12T12:25:45.493Z,3.53
2022-10-12T12:28:22.894Z,4.40
2022-10-12T12:30:57.330Z,4.20
2022-10-12T12:33:35.986Z,3.80
2022-10-12T12:36:04.411Z,4.50
2022-10-12T12:38:35.016Z,4.40
2022-10-12T12:41:06.754Z,4.33
2022-10-12T12:43:39.068Z,4.10
2022-10-12T12:46:11.880Z,3.23
2022-10-12T12:48:41.656Z,3.20
2022-10-12T12:51:13.727Z,3.63
2022-10-12T12:53:45.127Z,3.67
2022-10-12T12:56:20.334Z,4.00
2022-10-12T12:59:08.451Z,4.10
2022-10-12T13:01:50.662Z,3.80
2022-10-12T13:04:35.596Z,3.10
2022-10-12T13:07:09.158Z,3.70
2022-10-12T13:09:45.660Z,3.50
2022-10-12T13:12:18.528Z,3.73
2022-10-12T13:14:45.096Z,4.53
2022-10-12T13:17:33.012Z,3.17
2022-10-12T13:20:02.096Z,3.10
2022-10-12T13:22:32.117Z,3.30
2022-10-12T13:25:01.642Z,3.60
2022-10-12T13:27:34.481Z,3.80
2022-10-12T13:30:19.994Z,3.00
2022-10-12T13:33:05.037Z,2.77
2022-10-12T13:35:34.159Z,3.33
2022-10-12T13:38:18.900Z,3.50
2022-10-12T13:41:02.629Z,2.30
2022-10-12T13:43:33.291Z,2.70
2022-10-12T13:46:00.460Z,2.50
2022-10-12T13:48:53.850Z,2.63
2022-10-12T13:51:21.330Z,2.70
2022-10-12T13:53:48.249Z,2.83
2022-10-12T13:56:16.482Z,2.93
2022-10-12T13:58:43.115Z,2.90
2022-10-12T14:01:13.545Z,2.93
2022-10-12T14:03:41.833Z,3.00
2022-10-12T14:06:28.807Z,2.90
2022-10-12T14:09:05.424Z,2.87
2022-10-12T14:11:32.188Z,3.07
2022-10-12T14:13:58.820Z,2.80
2022-10-12T14:16:25.451Z,2.80
2022-10-12T14:18:51.997Z,2.80
2022-10-12T14:21:34.588Z,2.93
2022-10-12T14:24:09.884Z,2.77
2022-10-12T14:26:43.367Z,2.90
2022-10-12T14:29:29.036Z,2.90
2022-10-12T14:31:57.672Z,3.37
2022-10-12T14:34:27.018Z,3.40
2022-10-12T14:37:03.966Z,3.97
2022-10-12T14:39:30.825Z,3.40
2022-10-12T14:41:59.732Z,3.93
2022-10-12T14:44:27.272Z,4.00
2022-10-12T14:46:55.107Z,4.17
2022-10-12T14:49:23.571Z,3.93
2022-10-12T14:51:51.712Z,4.33
2022-10-12T14:54:18.312Z,4.50
2022-10-12T14:56:44.963Z,4.57
2022-10-12T14:59:11.663Z,4.23
2022-10-12T15:01:41.969Z,4.90
2022-10-12T15:04:13.595Z,4.67
2022-10-12T15:06:40.310Z,4.80
2022-10-12T15:09:06.864Z,4.80
2022-10-12T15:11:33.427Z,4.50
2022-10-12T15:14:00.039Z,4.90
2022-10-12T15:16:27.712Z,4.70
2022-10-12T15:18:54.356Z,4.90
2022-10-12T15:21:20.975Z,4.77
2022-10-12T15:23:47.528Z,5.17
2022-10-12T15:26:15.370Z,5.23
2022-10-12T15:28:43.197Z,5.23
2022-10-12T15:31:17.535Z,5.40
2022-10-12T15:33:44.795Z,5.70
2022-10-12T15:36:11.536Z,5.50
2022-10-12T15:38:38.200Z,5.47
2022-10-12T15:41:04.847Z,5.50
2022-10-12T15:43:33.019Z,4.97
2022-10-12T15:46:01.466Z,4.50
2022-10-12T15:48:29.012Z,4.70
2022-10-12T15:50:55.561Z,4.20
2022-10-12T15:53:26.383Z,4.57
2022-10-12T15:55:53.923Z,4.20
2022-10-12T15:58:20.746Z,4.40
2022-10-12T16:00:47.717Z,5.40
2022-10-12T16:03:24.502Z,4.47
2022-10-12T16:05:52.011Z,4.23
2022-10-12T16:08:18.757Z,4.60
2022-10-12T16:10:46.175Z,4.43
2022-10-12T16:13:13.521Z,3.87
2022-10-12T16:15:40.626Z,4.43
2022-10-12T16:18:07.316Z,4.43
2022-10-12T16:20:36.810Z,4.60
2022-10-12T16:23:03.910Z,4.63
2022-10-12T16:25:30.502Z,4.53
2022-10-12T16:27:57.445Z,4.63
2022-10-12T16:30:24.843Z,4.47
2022-10-12T16:32:52.814Z,4.67
2022-10-12T16:35:19.470Z,4.17
2022-10-12T16:37:46.259Z,4.57
2022-10-12T16:40:13.211Z,4.63
2022-10-12T16:42:39.831Z,4.80
2022-10-12T16:45:06.977Z,4.70
2022-10-12T16:47:33.603Z,4.90
2022-10-12T16:50:00.200Z,4.97
2022-10-12T16:52:26.884Z,5.03
2022-10-12T16:54:56.568Z,5.00
2022-10-12T16:57:23.476Z,4.80
2022-10-12T16:59:50.450Z,4.77
2022-10-12T17:02:18.116Z,4.67
2022-10-12T17:04:45.125Z,5.20
2022-10-12T17:07:11.745Z,5.40
2022-10-12T17:09:38.565Z,6.00
2022-10-12T17:12:05.238Z,6.30
2022-10-12T17:14:31.966Z,6.20
2022-10-12T17:16:58.586Z,7.13
2022-10-12T17:19:29.452Z,6.90
2022-10-12T17:21:59.430Z,6.63
2022-10-12T17:24:27.589Z,7.97
2022-10-12T17:26:55.140Z,8.30
2022-10-12T17:29:21.997Z,8.67
2022-10-12T17:31:49.096Z,9.10
2022-10-12T17:34:23.325Z,9.37
2022-10-12T17:36:50.777Z,9.87
2022-10-12T17:39:17.846Z,9.60
2022-10-12T17:41:44.660Z,9.07
2022-10-12T17:44:11.641Z,9.47
2022-10-12T17:46:38.804Z,8.57
2022-10-12T17:49:05.971Z,9.27
2022-10-12T17:51:32.865Z,8.90
2022-10-12T17:53:59.580Z,8.37
2022-10-12T17:56:26.381Z,8.40
2022-10-12T17:58:53.982Z,8.70
2022-10-12T18:01:20.857Z,8.40
2022-10-12T18:03:48.142Z,8.43
2022-10-12T18:06:16.503Z,8.17
2022-10-12T18:08:43.702Z,8.50
2022-10-12T18:11:10.876Z,8.30
2022-10-12T18:13:38.101Z,9.33
2022-10-12T18:16:09.380Z,9.50
2022-10-12T18:18:36.126Z,9.03
2022-10-12T18:21:07.078Z,8.87
2022-10-12T18:23:34.009Z,9.00
2022-10-12T18:26:07.803Z,9.43
2022-10-12T18:28:35.322Z,8.67
2022-10-12T18:31:03.652Z,10.07
2022-10-12T18:33:30.252Z,9.93
2022-10-12T18:36:01.757Z,10.10
2022-10-12T18:38:28.352Z,11.27
2022-10-12T18:40:54.964Z,11.57
2022-10-12T18:43:21.551Z,11.33
2022-10-12T18:45:48.104Z,10.93
2022-10-12T18:48:15.162Z,10.03
2022-10-12T18:50:41.840Z,10.13
2022-10-12T18:53:08.596Z,9.23
2022-10-12T18:55:38.568Z,9.03
2022-10-12T18:58:05.537Z,7.77
2022-10-12T19:00:32.272Z,8.83
2022-10-12T19:02:59.071Z,9.00
2022-10-12T19:05:26.711Z,7.77
2022-10-12T19:07:53.284Z,8.37
2022-10-12T19:10:19.938Z,8.50
2022-10-12T19:12:46.504Z,8.13
2022-10-12T19:15:13.110Z,8.83
2022-10-12T19:17:39.677Z,8.67
2022-10-12T19:20:06.596Z,8.60
2022-10-12T19:22:33.338Z,8.60
2022-10-12T19:24:59.984Z,8.77
2022-10-12T19:27:26.629Z,8.63
2022-10-12T19:29:53.218Z,8.60
2022-10-12T19:32:20.304Z,8.53
2022-10-12T19:34:49.976Z,8.93
2022-10-12T19:37:16.561Z,8.60
2022-10-12T19:39:45.076Z,8.23
2022-10-12T19:42:11.672Z,8.13
2022-10-12T19:44:38.389Z,8.57
2022-10-12T19:47:04.994Z,8.00
2022-10-12T19:49:36.419Z,8.10
2022-10-12T19:52:03.898Z,8.40
2022-10-12T19:54:34.082Z,7.83
2022-10-12T19:57:02.580Z,7.53
2022-10-12T19:59:29.203Z,8.13
2022-10-12T20:01:55.788Z,8.70
2022-10-12T20:04:22.438Z,7.43
2022-10-12T20:06:49.049Z,8.70
2022-10-12T20:09:15.643Z,8.10
2022-10-12T20:11:42.386Z,7.80
2022-10-12T20:14:10.172Z,6.97
2022-10-12T20:16:37.393Z,7.50
2022-10-12T20:19:05.256Z,7.53
2022-10-12T20:21:31.993Z,9.33
2022-10-12T20:23:58.617Z,8.97
2022-10-12T20:26:25.358Z,8.23
2022-10-12T20:28:53.162Z,8.37
2022-10-12T20:31:23.252Z,7.40
2022-10-12T20:33:51.905Z,8.67
2022-10-12T20:36:23.383Z,7.47
2022-10-12T20:38:50.086Z,7.83
2022-10-12T20:41:21.610Z,8.10
2022-10-12T20:43:48.369Z,7.57
2022-10-12T20:46:16.548Z,8.23
2022-10-12T20:48:44.489Z,7.93
2022-10-12T20:51:15.897Z,8.20
2022-10-12T20:53:42.518Z,8.07
2022-10-12T20:56:10.083Z,8.23
2022-10-12T20:58:37.016Z,8.00
2022-10-12T21:01:08.752Z,8.17
2022-10-12T21:03:35.833Z,7.83
2022-10-12T21:06:06.189Z,7.20
2022-10-12T21:08:32.996Z,8.57
2022-10-12T21:10:59.733Z,8.10
2022-10-12T21:13:29.080Z,8.00
2022-10-12T21:15:55.623Z,7.87
2022-10-12T21:18:22.378Z,7.80
2022-10-12T21:20:56.094Z,7.97
2022-10-12T21:23:22.965Z,7.73
2022-10-12T21:25:49.589Z,7.73
2022-10-12T21:28:16.294Z,7.97
2022-10-12T21:30:43.041Z,7.90
2022-10-12T21:33:09.672Z,7.80
2022-10-12T21:35:39.140Z,8.20
2022-10-12T21:38:05.881Z,8.07
2022-10-12T21:40:32.969Z,8.37
2022-10-12T21:42:59.711Z,8.37
2022-10-12T21:45:26.316Z,8.67
2022-10-12T21:47:52.961Z,8.13
2022-10-12T21:50:19.545Z,10.03
2022-10-12T21:52:49.794Z,9.60
2022-10-12T21:55:16.724Z,9.83
2022-10-12T21:57:44.773Z,9.27
2022-10-12T22:00:11.645Z,9.93
2022-10-12T22:02:41.063Z,9.93
2022-10-12T22:05:07.742Z,9.07
2022-10-12T22:07:34.357Z,10.00
2022-10-12T22:10:00.951Z,9.27
2022-10-12T22:12:27.775Z,9.33
2022-10-12T22:14:54.332Z,9.00
2022-10-12T22:17:21.013Z,9.23
2022-10-12T22:19:47.700Z,8.17
2022-10-12T22:22:14.355Z,8.47
2022-10-12T22:24:41.020Z,8.27
2022-10-12T22:27:07.873Z,8.03
2022-10-12T22:29:34.934Z,7.57
2022-10-12T22:32:02.169Z,7.70
2022-10-12T22:34:28.739Z,7.53
2022-10-12T22:36:55.764Z,7.97
2022-10-12T22:39:24.281Z,7.90
2022-10-12T22:41:50.870Z,8.87
2022-10-12T22:44:17.501Z,8.83
2022-10-12T22:46:44.080Z,8.60
2022-10-12T22:49:10.633Z,7.80
2022-10-12T22:51:40.863Z,7.87
2022-10-12T22:54:07.642Z,7.67
2022-10-12T22:56:34.324Z,7.57
2022-10-12T22:59:03.055Z,7.73
2022-10-12T23:01:29.847Z,8.50
2022-10-12T23:03:56.584Z,7.10
2022-10-12T23:06:23.583Z,7.40
2022-10-12T23:08:50.854Z,7.40
2022-10-12T23:11:18.510Z,8.07
2022-10-12T23:13:45.177Z,7.30
2022-10-12T23:16:13.066Z,8.57
2022-10-12T23:18:40.350Z,7.87
2022-10-12T23:21:07.772Z,7.67
2022-10-12T23:23:35.260Z,7.23
2022-10-12T23:26:03.913Z,8.30
2022-10-12T23:28:30.796Z,7.17
2022-10-12T23:30:57.631Z,7.87
2022-10-12T23:33:24.410Z,7.33
2022-10-12T23:36:01.433Z,7.37
2022-10-12T23:38:29.261Z,7.70
2022-10-12T23:40:56.001Z,7.60
2022-10-12T23:43:22.594Z,7.73
2022-10-12T23:45:49.334Z,8.00
2022-10-12T23:48:16.215Z,7.50
2022-10-12T23:50:47.011Z,7.10
2022-10-12T23:53:13.979Z,7.10
2022-10-12T23:55:40.548Z,7.20
2022-10-12T23:58:07.133Z,8.10
